createdAt,value
2023-03-25T00:03:14.936Z,25.5
2023-03-25T00:08:51.566Z,25.5
2023-03-25T00:14:12.112Z,25.5
2023-03-25T00:20:04.404Z,25.4
2023-03-25T00:25:25.064Z,25.4
2023-03-25T00:31:01.250Z,25.4
2023-03-25T00:36:38.628Z,25.4
2023-03-25T00:42:30.200Z,25.4
2023-03-25T00:48:07.234Z,25.4
2023-03-25T00:53:53.926Z,25.4
2023-03-25T00:59:45.203Z,25.4
2023-03-25T01:05:38.697Z,25.4
2023-03-25T01:11:15.028Z,25.3
2023-03-25T01:16:51.635Z,25.4
2023-03-25T01:22:28.482Z,25.3
2023-03-25T01:28:20.583Z,25.3
2023-03-25T01:34:12.560Z,25.3
2023-03-25T01:39:33.218Z,25.3
2023-03-25T01:45:04.860Z,25.3
2023-03-25T01:50:41.355Z,25.3
2023-03-25T01:56:32.640Z,25.2
2023-03-25T02:02:09.294Z,25.2
2023-03-25T02:07:45.599Z,25.2
2023-03-25T02:13:21.853Z,25.2
2023-03-25T02:19:14.168Z,25.2
2023-03-25T02:25:05.864Z,25.1
2023-03-25T02:30:41.229Z,25.1
2023-03-25T02:36:33.310Z,25.1
2023-03-25T02:42:09.402Z,25.1
2023-03-25T02:47:45.640Z,25.1
2023-03-25T02:53:37.593Z,25.1
2023-03-25T02:59:28.746Z,25.1
2023-03-25T03:05:20.453Z,25.1
2023-03-25T03:10:41.239Z,25
2023-03-25T03:16:17.062Z,25
2023-03-25T03:22:09.210Z,25
2023-03-25T03:28:01.078Z,24.9
2023-03-25T03:34:39.627Z,24.9
2023-03-25T03:40:30.849Z,24.9
2023-03-25T03:46:07.623Z,24.9
2023-03-25T03:51:59.158Z,24.9
2023-03-25T03:57:35.878Z,24.9
2023-03-25T04:03:27.648Z,24.9
2023-03-25T04:09:03.304Z,24.9
2023-03-25T04:14:54.856Z,24.9
2023-03-25T04:20:33.867Z,24.8
2023-03-25T04:26:10.233Z,24.8
2023-03-25T04:31:46.444Z,24.8
2023-03-25T04:37:38.336Z,24.8
2023-03-25T04:43:29.743Z,24.8
2023-03-25T04:48:50.420Z,24.8
2023-03-25T04:54:42.291Z,24.8
2023-03-25T05:00:34.370Z,24.6
2023-03-25T05:06:26.408Z,24.6
2023-03-25T05:12:17.674Z,24.5
2023-03-25T05:18:09.517Z,24.4
2023-03-25T05:23:45.744Z,24.4
2023-03-25T05:29:37.117Z,24.4
2023-03-25T05:35:30.048Z,24.4
2023-03-25T05:41:22.416Z,24.4
2023-03-25T05:46:59.637Z,24.3
2023-03-25T05:52:50.444Z,24.3
2023-03-25T05:58:46.591Z,24.3
2023-03-25T06:04:54.765Z,24.2
2023-03-25T06:10:45.341Z,23.9
2023-03-25T06:16:37.148Z,23.8
2023-03-25T06:22:28.588Z,23.8
2023-03-25T06:28:20.287Z,23.7
2023-03-25T06:34:33.058Z,23.6
2023-03-25T06:40:24.526Z,23.6
2023-03-25T06:46:00.439Z,23.6
2023-03-25T06:51:36.782Z,23.6
2023-03-25T06:57:28.590Z,23.6
2023-03-25T07:03:20.097Z,38.1
2023-03-25T07:09:13.197Z,47
2023-03-25T07:15:05.475Z,43.3
2023-03-25T07:21:03.245Z,39.8
2023-03-25T07:26:55.350Z,52.3
2023-03-25T07:32:47.992Z,46.8
2023-03-25T07:38:40.303Z,44.1
2023-03-25T07:44:34.684Z,53.6
2023-03-25T07:50:31.220Z,48.8
2023-03-25T07:56:24.425Z,47.8
2023-03-25T08:02:18.601Z,49.4
2023-03-25T08:08:12.920Z,50.8
2023-03-25T08:14:06.976Z,51.8
2023-03-25T08:19:59.357Z,53.9
2023-03-25T08:25:37.856Z,56.1
2023-03-25T08:31:30.734Z,54.3
2023-03-25T08:37:22.338Z,48.6
2023-03-25T08:42:58.611Z,43.8
2023-03-25T08:48:34.549Z,40.5
2023-03-25T08:59:45.916Z,57.2
2023-03-25T09:05:41.581Z,55.4
2023-03-25T09:11:53.232Z,60
2023-03-25T09:17:45.533Z,63.3
2023-03-25T09:23:39.226Z,55.3
2023-03-25T09:29:31.753Z,54.3
2023-03-25T09:35:24.210Z,57.4
2023-03-25T09:41:01.097Z,63.5
2023-03-25T09:46:57.357Z,61.1
2023-03-25T09:52:52.340Z,55.6
2023-03-25T09:58:44.562Z,56.3
2023-03-25T10:04:21.835Z,56.7
2023-03-25T10:09:43.135Z,56.2
2023-03-25T10:15:37.441Z,57.8
2023-03-25T10:21:29.318Z,56.3
2023-03-25T10:27:20.920Z,50.3
2023-03-25T10:33:13.137Z,51.6
2023-03-25T10:39:06.113Z,61
2023-03-25T10:44:58.302Z,62
2023-03-25T10:50:50.306Z,67.8
2023-03-25T10:56:41.905Z,70.3
2023-03-25T11:02:34.085Z,68.8
2023-03-25T11:08:40.392Z,69.2
2023-03-25T11:14:44.073Z,68
2023-03-25T11:20:24.661Z,66.3
2023-03-25T11:26:16.415Z,63.9
2023-03-25T11:32:08.354Z,64.4
2023-03-25T11:38:00.571Z,63.3
2023-03-25T11:43:52.802Z,55.9
2023-03-25T11:49:13.555Z,50.9
2023-03-25T11:54:49.879Z,46.4
2023-03-25T12:00:41.947Z,42.9
2023-03-25T12:06:03.693Z,40.4
2023-03-25T12:11:42.468Z,38.4
2023-03-25T12:17:35.128Z,36.6
2023-03-25T12:23:27.908Z,35.1
2023-03-25T12:29:03.974Z,33.9
2023-03-25T12:34:56.321Z,32.9
2023-03-25T12:41:05.127Z,32
2023-03-25T12:46:57.026Z,31.2
2023-03-25T12:52:36.367Z,30.6
2023-03-25T12:57:57.418Z,30
2023-03-25T13:03:51.118Z,29.4
2023-03-25T13:09:42.895Z,29
2023-03-25T13:15:42.791Z,28.6
2023-03-25T13:21:25.550Z,28.3
2023-03-25T13:27:17.584Z,27.9
2023-03-25T13:33:10.427Z,27.6
2023-03-25T13:38:47.311Z,27.4
2023-03-25T13:44:42.215Z,27.1
2023-03-25T13:50:04.376Z,26.9
2023-03-25T13:55:57.766Z,26.8
2023-03-25T14:01:50.450Z,26.6
2023-03-25T14:07:44.825Z,26.4
2023-03-25T14:13:37.020Z,26.3
2023-03-25T14:18:58.656Z,26.2
2023-03-25T14:24:39.339Z,26.1
2023-03-25T14:30:31.131Z,25.9
2023-03-25T14:36:25.021Z,25.9
2023-03-25T14:42:14.017Z,25.8
2023-03-25T14:47:50.226Z,25.7
2023-03-25T14:53:41.877Z,25.6
2023-03-25T14:59:35.375Z,25.6
2023-03-25T15:05:29.307Z,25.5
2023-03-25T15:11:05.379Z,25.4
2023-03-25T15:16:57.229Z,25.4
2023-03-25T15:22:49.480Z,25.3
2023-03-25T15:28:41.215Z,25.3
2023-03-25T15:34:33.102Z,25.2
2023-03-25T15:40:36.094Z,25.1
2023-03-25T15:46:40.090Z,25.1
2023-03-25T15:52:32.344Z,25.1
2023-03-25T15:58:29.117Z,25.1
2023-03-25T16:04:20.810Z,25
2023-03-25T16:10:12.376Z,25
2023-03-25T16:16:03.668Z,25
2023-03-25T16:21:25.165Z,24.9
2023-03-25T16:27:18.940Z,24.9
2023-03-25T16:32:57.660Z,24.9
2023-03-25T16:38:33.516Z,24.8
2023-03-25T16:44:09.825Z,24.8
2023-03-25T16:49:47.512Z,24.8
2023-03-25T16:55:23.211Z,24.8
2023-03-25T17:01:15.649Z,24.7
2023-03-25T17:07:08.755Z,24.7
2023-03-25T17:12:59.830Z,24.6
2023-03-25T17:18:39.368Z,24.6
2023-03-25T17:24:16.535Z,24.6
2023-03-25T17:30:08.352Z,24.6
2023-03-25T17:36:02.015Z,24.5
2023-03-25T17:41:38.503Z,24.4
2023-03-25T17:47:32.087Z,24.4
2023-03-25T17:53:23.018Z,24.4
2023-03-25T17:59:14.545Z,24.4
2023-03-25T18:05:07.130Z,24.4
2023-03-25T18:10:58.225Z,24.4
2023-03-25T18:16:49.543Z,24.3
2023-03-25T18:22:36.556Z,24.3
2023-03-25T18:28:29.994Z,24.3
2023-03-25T18:34:21.449Z,24.3
2023-03-25T18:40:13.407Z,24.3
2023-03-25T18:45:49.126Z,24.3
2023-03-25T18:51:40.709Z,24.3
2023-03-25T18:57:16.136Z,24.2
2023-03-25T19:03:08.295Z,24.2
2023-03-25T19:09:13.712Z,24.9
2023-03-25T19:15:17.570Z,29.4
2023-03-25T19:21:17.600Z,30.7
2023-03-25T19:27:08.568Z,30.6
2023-03-25T19:33:00.819Z,30.2
2023-03-25T19:38:53.531Z,29.8
2023-03-25T19:44:30.201Z,29.5
2023-03-25T19:50:21.862Z,29.2
2023-03-25T19:55:58.244Z,28.6
2023-03-25T20:01:50.278Z,28.2
2023-03-25T20:07:27.296Z,28
2023-03-25T20:13:28.396Z,27.9
2023-03-25T20:19:05.006Z,27.9
2023-03-25T20:30:01.075Z,27.8
2023-03-25T20:36:04.080Z,27.7
2023-03-25T20:42:12.208Z,27.6
2023-03-25T20:48:03.354Z,27.6
2023-03-25T20:53:55.150Z,27.5
2023-03-25T20:59:47.950Z,27.4
2023-03-25T21:05:24.218Z,27.4
2023-03-25T21:11:28.209Z,27.4
2023-03-25T21:17:30.212Z,27.4
2023-03-25T21:23:24.313Z,27.3
2023-03-25T21:29:02.570Z,26.8
2023-03-25T21:34:57.298Z,25.7
2023-03-25T21:40:55.946Z,25.1
2023-03-25T21:46:57.340Z,24.7
2023-03-25T21:52:49.410Z,24.4
2023-03-25T21:58:12.700Z,24.1
2023-03-25T22:03:34.582Z,23.9
2023-03-25T22:09:26.550Z,23.8
2023-03-25T22:15:17.348Z,23.6
2023-03-25T22:21:09.890Z,23.6
2023-03-25T22:27:04.395Z,23.4
2023-03-25T22:32:40.185Z,23.4
2023-03-25T22:38:31.763Z,23.3
2023-03-25T22:44:08.171Z,23.2
2023-03-25T22:50:00.433Z,23.1
2023-03-25T22:55:53.274Z,23.1
2023-03-25T23:01:45.565Z,23.1
2023-03-25T23:07:17.124Z,23
2023-03-25T23:12:53.148Z,23
2023-03-25T23:18:46.422Z,22.9
2023-03-25T23:24:26.170Z,22.9
2023-03-25T23:30:17.768Z,22.9
2023-03-25T23:36:10.173Z,22.8
2023-03-25T23:41:46.222Z,22.8
2023-03-25T23:47:38.840Z,22.8
2023-03-25T23:52:59.498Z,22.7
2023-03-25T23:58:35.347Z,22.7
